Redwood Falls, Minnesota
Current Conditions -  °F | °C
As of 10:53 AM on Thursday 30 Oct 2014 (Local Time) from KRWF Reporting Station
Overcast Overcast  
Wind Chill: 42°   Ceiling: 7000
Heat Index: 46°   Visibility: 10mi
Dew Point: 39°   Wind: 8mph
Humidity: 76%   Direction: 350°N
Pressure: 30.08"   Gusts: NA
Location:  44.54°N, 95.12°W
Report Text: KRWF 301553Z AUTO 35007KT 320V020 10SM OVC070 08/04 A3008 RMK AO2 SLP193 T00780039
Loading
Personal Weather Stations






























Interactive Weather Map
Tropical Storm Tracking
New forecast layout! Learn more

10-Day Weather Forecast

Advertisements
Track Severe Weather on mobile